sensor_id;sensor_type;location;lat;lon;timestamp;P1;durP1;ratioP1;P2;durP2;ratioP2
68803;SDS011;55787;52.678;13.314;2023-11-19T00:00:48;12.32;;;4.20;;
68803;SDS011;55787;52.678;13.314;2023-11-19T00:03:17;12.48;;;4.60;;
68803;SDS011;55787;52.678;13.314;2023-11-19T00:05:44;13.25;;;4.60;;
68803;SDS011;55787;52.678;13.314;2023-11-19T00:08:11;13.27;;;4.53;;
68803;SDS011;55787;52.678;13.314;2023-11-19T00:10:37;12.85;;;4.43;;
68803;SDS011;55787;52.678;13.314;2023-11-19T00:13:04;13.35;;;4.72;;
68803;SDS011;55787;52.678;13.314;2023-11-19T00:15:30;14.57;;;4.63;;
68803;SDS011;55787;52.678;13.314;2023-11-19T00:17:57;12.73;;;4.57;;
68803;SDS011;55787;52.678;13.314;2023-11-19T00:20:27;11.33;;;4.10;;
68803;SDS011;55787;52.678;13.314;2023-11-19T00:22:55;14.55;;;5.13;;
68803;SDS011;55787;52.678;13.314;2023-11-19T00:25:21;12.95;;;4.70;;
68803;SDS011;55787;52.678;13.314;2023-11-19T00:27:49;13.80;;;4.72;;
68803;SDS011;55787;52.678;13.314;2023-11-19T00:30:20;13.43;;;5.07;;
68803;SDS011;55787;52.678;13.314;2023-11-19T00:32:47;12.60;;;4.80;;
68803;SDS011;55787;52.678;13.314;2023-11-19T00:35:14;13.50;;;4.72;;
68803;SDS011;55787;52.678;13.314;2023-11-19T00:37:41;14.52;;;4.93;;
68803;SDS011;55787;52.678;13.314;2023-11-19T00:40:09;14.70;;;4.93;;
68803;SDS011;55787;52.678;13.314;2023-11-19T00:42:37;13.48;;;4.65;;
68803;SDS011;55787;52.678;13.314;2023-11-19T00:45:04;12.67;;;4.77;;
68803;SDS011;55787;52.678;13.314;2023-11-19T00:47:34;13.63;;;4.60;;
68803;SDS011;55787;52.678;13.314;2023-11-19T00:50:02;13.48;;;4.72;;
68803;SDS011;55787;52.678;13.314;2023-11-19T00:52:29;13.38;;;5.40;;
68803;SDS011;55787;52.678;13.314;2023-11-19T00:54:56;13.90;;;4.72;;
68803;SDS011;55787;52.678;13.314;2023-11-19T00:57:23;13.70;;;5.20;;
68803;SDS011;55787;52.678;13.314;2023-11-19T00:59:50;12.48;;;4.50;;
68803;SDS011;55787;52.678;13.314;2023-11-19T01:02:17;13.45;;;5.18;;
68803;SDS011;55787;52.678;13.314;2023-11-19T01:04:43;14.18;;;4.85;;
68803;SDS011;55787;52.678;13.314;2023-11-19T01:07:10;13.23;;;4.53;;
68803;SDS011;55787;52.678;13.314;2023-11-19T01:09:41;14.97;;;4.27;;
68803;SDS011;55787;52.678;13.314;2023-11-19T01:12:08;14.60;;;4.78;;
68803;SDS011;55787;52.678;13.314;2023-11-19T01:14:36;13.20;;;5.28;;
68803;SDS011;55787;52.678;13.314;2023-11-19T01:17:03;12.32;;;4.55;;
68803;SDS011;55787;52.678;13.314;2023-11-19T01:19:31;12.57;;;4.45;;
68803;SDS011;55787;52.678;13.314;2023-11-19T01:21:57;11.60;;;3.87;;
68803;SDS011;55787;52.678;13.314;2023-11-19T01:24:24;11.93;;;4.30;;
68803;SDS011;55787;52.678;13.314;2023-11-19T01:26:54;12.75;;;4.60;;
68803;SDS011;55787;52.678;13.314;2023-11-19T01:29:21;13.32;;;4.75;;
68803;SDS011;55787;52.678;13.314;2023-11-19T01:31:48;12.15;;;3.97;;
68803;SDS011;55787;52.678;13.314;2023-11-19T01:34:14;12.17;;;4.20;;
68803;SDS011;55787;52.678;13.314;2023-11-19T01:36:41;11.05;;;4.18;;
68803;SDS011;55787;52.678;13.314;2023-11-19T01:39:08;11.02;;;3.58;;
68803;SDS011;55787;52.678;13.314;2023-11-19T01:41:34;11.48;;;4.00;;
68803;SDS011;55787;52.678;13.314;2023-11-19T01:44:02;11.32;;;3.95;;
68803;SDS011;55787;52.678;13.314;2023-11-19T01:46:29;12.13;;;4.30;;
68803;SDS011;55787;52.678;13.314;2023-11-19T01:48:59;11.48;;;4.18;;
68803;SDS011;55787;52.678;13.314;2023-11-19T01:51:26;12.88;;;4.22;;
68803;SDS011;55787;52.678;13.314;2023-11-19T01:53:53;12.88;;;3.92;;
68803;SDS011;55787;52.678;13.314;2023-11-19T01:56:21;14.85;;;4.60;;
68803;SDS011;55787;52.678;13.314;2023-11-19T01:58:49;12.83;;;3.97;;
68803;SDS011;55787;52.678;13.314;2023-11-19T02:01:16;13.45;;;4.07;;
68803;SDS011;55787;52.678;13.314;2023-11-19T02:03:43;12.52;;;3.83;;
68803;SDS011;55787;52.678;13.314;2023-11-19T02:06:10;9.98;;;3.70;;
68803;SDS011;55787;52.678;13.314;2023-11-19T02:08:36;12.23;;;3.72;;
68803;SDS011;55787;52.678;13.314;2023-11-19T02:11:05;11.67;;;3.90;;
68803;SDS011;55787;52.678;13.314;2023-11-19T02:13:33;12.60;;;4.60;;
68803;SDS011;55787;52.678;13.314;2023-11-19T02:16:02;11.43;;;3.47;;
68803;SDS011;55787;52.678;13.314;2023-11-19T02:18:30;14.80;;;3.90;;
68803;SDS011;55787;52.678;13.314;2023-11-19T02:20:57;11.13;;;3.42;;
68803;SDS011;55787;52.678;13.314;2023-11-19T02:23:28;11.53;;;4.00;;
68803;SDS011;55787;52.678;13.314;2023-11-19T02:26:02;11.35;;;3.65;;
68803;SDS011;55787;52.678;13.314;2023-11-19T02:28:28;10.20;;;3.70;;
68803;SDS011;55787;52.678;13.314;2023-11-19T02:30:55;13.55;;;3.92;;
68803;SDS011;55787;52.678;13.314;2023-11-19T02:33:22;11.43;;;3.92;;
68803;SDS011;55787;52.678;13.314;2023-11-19T02:35:49;11.17;;;3.70;;
68803;SDS011;55787;52.678;13.314;2023-11-19T02:38:17;11.68;;;3.65;;
68803;SDS011;55787;52.678;13.314;2023-11-19T02:40:44;10.30;;;3.58;;
68803;SDS011;55787;52.678;13.314;2023-11-19T02:43:10;10.68;;;3.65;;
68803;SDS011;55787;52.678;13.314;2023-11-19T02:45:37;11.38;;;3.60;;
68803;SDS011;55787;52.678;13.314;2023-11-19T02:48:03;13.23;;;3.70;;
68803;SDS011;55787;52.678;13.314;2023-11-19T02:50:32;14.00;;;3.70;;
68803;SDS011;55787;52.678;13.314;2023-11-19T02:52:59;9.75;;;3.00;;
68803;SDS011;55787;52.678;13.314;2023-11-19T02:55:26;9.50;;;3.20;;
68803;SDS011;55787;52.678;13.314;2023-11-19T02:57:54;11.32;;;3.53;;
68803;SDS011;55787;52.678;13.314;2023-11-19T03:00:23;9.50;;;3.17;;
68803;SDS011;55787;52.678;13.314;2023-11-19T03:02:51;9.68;;;3.10;;
68803;SDS011;55787;52.678;13.314;2023-11-19T03:05:36;9.95;;;3.33;;
68803;SDS011;55787;52.678;13.314;2023-11-19T03:08:03;10.23;;;3.30;;
68803;SDS011;55787;52.678;13.314;2023-11-19T03:10:30;10.73;;;3.08;;
68803;SDS011;55787;52.678;13.314;2023-11-19T03:12:56;10.47;;;3.10;;
68803;SDS011;55787;52.678;13.314;2023-11-19T03:15:23;11.05;;;3.53;;
68803;SDS011;55787;52.678;13.314;2023-11-19T03:17:50;9.95;;;3.08;;
68803;SDS011;55787;52.678;13.314;2023-11-19T03:20:16;10.50;;;3.10;;
68803;SDS011;55787;52.678;13.314;2023-11-19T03:22:43;9.57;;;3.00;;
68803;SDS011;55787;52.678;13.314;2023-11-19T03:25:10;12.07;;;3.40;;
68803;SDS011;55787;52.678;13.314;2023-11-19T03:27:37;10.35;;;3.20;;
68803;SDS011;55787;52.678;13.314;2023-11-19T03:30:11;10.00;;;3.15;;
68803;SDS011;55787;52.678;13.314;2023-11-19T03:32:38;11.52;;;3.08;;
68803;SDS011;55787;52.678;13.314;2023-11-19T03:35:05;10.18;;;3.55;;
68803;SDS011;55787;52.678;13.314;2023-11-19T03:37:35;10.20;;;2.80;;
68803;SDS011;55787;52.678;13.314;2023-11-19T03:40:03;10.38;;;3.30;;
68803;SDS011;55787;52.678;13.314;2023-11-19T03:42:30;8.20;;;2.30;;
68803;SDS011;55787;52.678;13.314;2023-11-19T03:44:57;10.98;;;2.97;;
68803;SDS011;55787;52.678;13.314;2023-11-19T03:47:24;11.80;;;3.17;;
68803;SDS011;55787;52.678;13.314;2023-11-19T03:49:51;10.70;;;3.50;;
68803;SDS011;55787;52.678;13.314;2023-11-19T03:52:18;9.73;;;3.03;;
68803;SDS011;55787;52.678;13.314;2023-11-19T03:54:46;10.52;;;3.00;;
68803;SDS011;55787;52.678;13.314;2023-11-19T03:57:13;8.15;;;2.55;;
68803;SDS011;55787;52.678;13.314;2023-11-19T03:59:39;10.63;;;3.40;;
68803;SDS011;55787;52.678;13.314;2023-11-19T04:02:06;9.73;;;3.13;;
68803;SDS011;55787;52.678;13.314;2023-11-19T04:04:33;11.98;;;3.28;;
68803;SDS011;55787;52.678;13.314;2023-11-19T04:07:00;9.18;;;2.95;;
68803;SDS011;55787;52.678;13.314;2023-11-19T04:09:29;10.00;;;3.30;;
68803;SDS011;55787;52.678;13.314;2023-11-19T04:11:56;9.73;;;2.55;;
68803;SDS011;55787;52.678;13.314;2023-11-19T04:14:23;10.43;;;3.40;;
68803;SDS011;55787;52.678;13.314;2023-11-19T04:16:49;10.68;;;3.60;;
68803;SDS011;55787;52.678;13.314;2023-11-19T04:19:17;11.93;;;4.07;;
68803;SDS011;55787;52.678;13.314;2023-11-19T04:21:45;10.75;;;3.50;;
68803;SDS011;55787;52.678;13.314;2023-11-19T04:24:12;11.95;;;3.75;;
68803;SDS011;55787;52.678;13.314;2023-11-19T04:26:43;12.63;;;3.93;;
68803;SDS011;55787;52.678;13.314;2023-11-19T04:29:12;12.32;;;3.97;;
68803;SDS011;55787;52.678;13.314;2023-11-19T04:31:39;10.93;;;3.47;;
68803;SDS011;55787;52.678;13.314;2023-11-19T04:34:06;11.55;;;3.75;;
68803;SDS011;55787;52.678;13.314;2023-11-19T04:36:34;11.25;;;4.05;;
68803;SDS011;55787;52.678;13.314;2023-11-19T04:39:01;13.17;;;4.03;;
68803;SDS011;55787;52.678;13.314;2023-11-19T04:41:28;11.27;;;4.13;;
68803;SDS011;55787;52.678;13.314;2023-11-19T04:43:55;13.43;;;4.30;;
68803;SDS011;55787;52.678;13.314;2023-11-19T04:46:22;13.30;;;3.90;;
68803;SDS011;55787;52.678;13.314;2023-11-19T04:48:50;9.70;;;3.25;;
68803;SDS011;55787;52.678;13.314;2023-11-19T04:51:17;14.70;;;4.30;;
68803;SDS011;55787;52.678;13.314;2023-11-19T04:53:43;13.52;;;4.18;;
68803;SDS011;55787;52.678;13.314;2023-11-19T04:56:10;14.25;;;4.68;;
68803;SDS011;55787;52.678;13.314;2023-11-19T04:58:37;13.52;;;4.90;;
68803;SDS011;55787;52.678;13.314;2023-11-19T05:01:04;13.90;;;4.55;;
68803;SDS011;55787;52.678;13.314;2023-11-19T05:03:31;14.30;;;4.67;;
68803;SDS011;55787;52.678;13.314;2023-11-19T05:05:58;13.77;;;4.57;;
68803;SDS011;55787;52.678;13.314;2023-11-19T05:08:25;16.23;;;4.85;;
68803;SDS011;55787;52.678;13.314;2023-11-19T05:10:52;13.73;;;3.95;;
68803;SDS011;55787;52.678;13.314;2023-11-19T05:13:18;12.57;;;4.10;;
68803;SDS011;55787;52.678;13.314;2023-11-19T05:15:45;14.50;;;5.00;;
68803;SDS011;55787;52.678;13.314;2023-11-19T05:18:11;11.88;;;4.15;;
68803;SDS011;55787;52.678;13.314;2023-11-19T05:20:38;13.57;;;4.93;;
68803;SDS011;55787;52.678;13.314;2023-11-19T05:23:05;14.52;;;5.03;;
68803;SDS011;55787;52.678;13.314;2023-11-19T05:25:31;12.13;;;4.35;;
68803;SDS011;55787;52.678;13.314;2023-11-19T05:27:58;15.00;;;4.83;;
68803;SDS011;55787;52.678;13.314;2023-11-19T05:30:24;12.55;;;4.55;;
68803;SDS011;55787;52.678;13.314;2023-11-19T05:32:51;14.00;;;4.78;;
68803;SDS011;55787;52.678;13.314;2023-11-19T05:35:18;12.90;;;4.80;;
68803;SDS011;55787;52.678;13.314;2023-11-19T05:37:44;14.63;;;4.88;;
68803;SDS011;55787;52.678;13.314;2023-11-19T05:40:13;15.13;;;5.23;;
68803;SDS011;55787;52.678;13.314;2023-11-19T05:42:42;12.63;;;4.15;;
68803;SDS011;55787;52.678;13.314;2023-11-19T05:45:10;12.82;;;4.32;;
68803;SDS011;55787;52.678;13.314;2023-11-19T05:47:38;14.95;;;4.40;;
68803;SDS011;55787;52.678;13.314;2023-11-19T05:50:04;12.60;;;4.68;;
68803;SDS011;55787;52.678;13.314;2023-11-19T05:52:32;11.30;;;4.30;;
68803;SDS011;55787;52.678;13.314;2023-11-19T05:55:00;12.30;;;4.28;;
68803;SDS011;55787;52.678;13.314;2023-11-19T05:57:30;12.13;;;4.15;;
68803;SDS011;55787;52.678;13.314;2023-11-19T05:59:57;12.50;;;4.07;;
68803;SDS011;55787;52.678;13.314;2023-11-19T06:02:25;12.52;;;3.83;;
68803;SDS011;55787;52.678;13.314;2023-11-19T06:04:53;13.10;;;3.90;;
68803;SDS011;55787;52.678;13.314;2023-11-19T06:07:20;11.98;;;3.90;;
68803;SDS011;55787;52.678;13.314;2023-11-19T06:09:46;11.30;;;3.55;;
68803;SDS011;55787;52.678;13.314;2023-11-19T06:12:13;9.60;;;3.20;;
68803;SDS011;55787;52.678;13.314;2023-11-19T06:14:40;12.43;;;3.75;;
68803;SDS011;55787;52.678;13.314;2023-11-19T06:17:07;11.00;;;3.20;;
68803;SDS011;55787;52.678;13.314;2023-11-19T06:19:35;13.43;;;3.97;;
68803;SDS011;55787;52.678;13.314;2023-11-19T06:22:01;12.05;;;4.15;;
68803;SDS011;55787;52.678;13.314;2023-11-19T06:24:28;11.52;;;3.83;;
68803;SDS011;55787;52.678;13.314;2023-11-19T06:26:55;13.35;;;4.35;;
68803;SDS011;55787;52.678;13.314;2023-11-19T06:29:21;12.73;;;3.73;;
68803;SDS011;55787;52.678;13.314;2023-11-19T06:31:48;11.45;;;4.00;;
68803;SDS011;55787;52.678;13.314;2023-11-19T06:34:15;10.95;;;3.85;;
68803;SDS011;55787;52.678;13.314;2023-11-19T06:36:42;10.95;;;3.78;;
68803;SDS011;55787;52.678;13.314;2023-11-19T06:39:10;10.45;;;3.67;;
68803;SDS011;55787;52.678;13.314;2023-11-19T06:41:39;11.80;;;4.10;;
68803;SDS011;55787;52.678;13.314;2023-11-19T06:44:10;11.02;;;3.67;;
68803;SDS011;55787;52.678;13.314;2023-11-19T06:46:37;11.38;;;3.47;;
68803;SDS011;55787;52.678;13.314;2023-11-19T06:49:03;12.18;;;4.00;;
68803;SDS011;55787;52.678;13.314;2023-11-19T06:51:30;11.82;;;4.07;;
68803;SDS011;55787;52.678;13.314;2023-11-19T06:53:56;11.77;;;3.80;;
68803;SDS011;55787;52.678;13.314;2023-11-19T06:56:23;12.45;;;4.20;;
68803;SDS011;55787;52.678;13.314;2023-11-19T06:58:50;15.27;;;4.90;;
68803;SDS011;55787;52.678;13.314;2023-11-19T07:01:17;14.48;;;4.90;;
68803;SDS011;55787;52.678;13.314;2023-11-19T07:03:45;13.45;;;4.32;;
68803;SDS011;55787;52.678;13.314;2023-11-19T07:06:15;13.47;;;4.60;;
68803;SDS011;55787;52.678;13.314;2023-11-19T07:08:42;13.57;;;4.40;;
68803;SDS011;55787;52.678;13.314;2023-11-19T07:11:11;16.00;;;4.28;;
68803;SDS011;55787;52.678;13.314;2023-11-19T07:13:38;13.07;;;4.47;;
68803;SDS011;55787;52.678;13.314;2023-11-19T07:16:05;10.85;;;3.47;;
68803;SDS011;55787;52.678;13.314;2023-11-19T07:18:33;12.63;;;4.23;;
68803;SDS011;55787;52.678;13.314;2023-11-19T07:21:01;10.50;;;3.58;;
68803;SDS011;55787;52.678;13.314;2023-11-19T07:23:29;12.75;;;4.30;;
68803;SDS011;55787;52.678;13.314;2023-11-19T07:25:55;12.80;;;4.13;;
68803;SDS011;55787;52.678;13.314;2023-11-19T07:28:22;11.02;;;3.70;;
68803;SDS011;55787;52.678;13.314;2023-11-19T07:30:49;11.13;;;3.80;;
68803;SDS011;55787;52.678;13.314;2023-11-19T07:33:16;11.95;;;3.90;;
68803;SDS011;55787;52.678;13.314;2023-11-19T07:35:42;10.88;;;3.63;;
68803;SDS011;55787;52.678;13.314;2023-11-19T07:38:10;11.43;;;3.42;;
68803;SDS011;55787;52.678;13.314;2023-11-19T07:40:36;10.82;;;3.55;;
68803;SDS011;55787;52.678;13.314;2023-11-19T07:43:03;12.20;;;3.87;;
68803;SDS011;55787;52.678;13.314;2023-11-19T07:45:29;10.73;;;4.00;;
68803;SDS011;55787;52.678;13.314;2023-11-19T07:47:56;12.13;;;3.50;;
68803;SDS011;55787;52.678;13.314;2023-11-19T07:50:23;12.60;;;4.05;;
68803;SDS011;55787;52.678;13.314;2023-11-19T07:52:51;11.57;;;3.85;;
68803;SDS011;55787;52.678;13.314;2023-11-19T07:55:17;13.10;;;4.10;;
68803;SDS011;55787;52.678;13.314;2023-11-19T07:57:44;11.38;;;3.92;;
68803;SDS011;55787;52.678;13.314;2023-11-19T08:00:10;12.73;;;4.60;;
68803;SDS011;55787;52.678;13.314;2023-11-19T08:02:39;11.05;;;4.00;;
68803;SDS011;55787;52.678;13.314;2023-11-19T08:05:06;12.32;;;4.38;;
68803;SDS011;55787;52.678;13.314;2023-11-19T08:07:33;12.57;;;4.07;;
68803;SDS011;55787;52.678;13.314;2023-11-19T08:09:59;14.18;;;4.30;;
68803;SDS011;55787;52.678;13.314;2023-11-19T08:12:26;15.13;;;4.90;;
68803;SDS011;55787;52.678;13.314;2023-11-19T08:14:53;15.02;;;4.47;;
68803;SDS011;55787;52.678;13.314;2023-11-19T08:17:25;14.25;;;4.90;;
68803;SDS011;55787;52.678;13.314;2023-11-19T08:19:52;14.80;;;4.63;;
68803;SDS011;55787;52.678;13.314;2023-11-19T08:22:19;16.48;;;4.70;;
68803;SDS011;55787;52.678;13.314;2023-11-19T08:24:45;13.15;;;4.32;;
68803;SDS011;55787;52.678;13.314;2023-11-19T08:27:12;14.13;;;4.75;;
68803;SDS011;55787;52.678;13.314;2023-11-19T08:29:39;14.48;;;4.88;;
68803;SDS011;55787;52.678;13.314;2023-11-19T08:32:05;14.13;;;4.70;;
68803;SDS011;55787;52.678;13.314;2023-11-19T08:34:33;12.18;;;4.70;;
68803;SDS011;55787;52.678;13.314;2023-11-19T08:36:59;12.57;;;4.80;;
68803;SDS011;55787;52.678;13.314;2023-11-19T08:39:26;13.45;;;4.72;;
68803;SDS011;55787;52.678;13.314;2023-11-19T08:41:53;12.38;;;4.63;;
68803;SDS011;55787;52.678;13.314;2023-11-19T08:44:21;13.80;;;5.40;;
68803;SDS011;55787;52.678;13.314;2023-11-19T08:46:48;12.40;;;4.65;;
68803;SDS011;55787;52.678;13.314;2023-11-19T08:49:15;13.30;;;4.45;;
68803;SDS011;55787;52.678;13.314;2023-11-19T08:51:42;13.52;;;5.00;;
68803;SDS011;55787;52.678;13.314;2023-11-19T08:54:09;14.95;;;5.30;;
68803;SDS011;55787;52.678;13.314;2023-11-19T08:56:36;14.53;;;5.13;;
68803;SDS011;55787;52.678;13.314;2023-11-19T08:59:02;17.10;;;5.35;;
68803;SDS011;55787;52.678;13.314;2023-11-19T09:01:30;11.73;;;4.18;;
68803;SDS011;55787;52.678;13.314;2023-11-19T09:03:57;13.23;;;4.55;;
68803;SDS011;55787;52.678;13.314;2023-11-19T09:06:23;12.15;;;4.40;;
68803;SDS011;55787;52.678;13.314;2023-11-19T09:08:50;13.43;;;4.93;;
68803;SDS011;55787;52.678;13.314;2023-11-19T09:11:17;11.93;;;4.13;;
68803;SDS011;55787;52.678;13.314;2023-11-19T09:13:43;12.50;;;4.72;;
68803;SDS011;55787;52.678;13.314;2023-11-19T09:16:12;15.38;;;4.75;;
68803;SDS011;55787;52.678;13.314;2023-11-19T09:18:39;11.95;;;4.28;;
68803;SDS011;55787;52.678;13.314;2023-11-19T09:21:05;12.53;;;3.73;;
68803;SDS011;55787;52.678;13.314;2023-11-19T09:23:32;13.50;;;4.00;;
68803;SDS011;55787;52.678;13.314;2023-11-19T09:26:02;12.43;;;4.03;;
68803;SDS011;55787;52.678;13.314;2023-11-19T09:28:29;12.68;;;3.55;;
68803;SDS011;55787;52.678;13.314;2023-11-19T09:30:56;12.15;;;3.95;;
68803;SDS011;55787;52.678;13.314;2023-11-19T09:33:23;11.67;;;4.03;;
68803;SDS011;55787;52.678;13.314;2023-11-19T09:35:49;9.93;;;3.38;;
68803;SDS011;55787;52.678;13.314;2023-11-19T09:38:17;9.75;;;3.30;;
68803;SDS011;55787;52.678;13.314;2023-11-19T09:40:43;10.27;;;3.35;;
68803;SDS011;55787;52.678;13.314;2023-11-19T09:43:10;11.05;;;3.40;;
68803;SDS011;55787;52.678;13.314;2023-11-19T09:45:47;8.83;;;2.87;;
68803;SDS011;55787;52.678;13.314;2023-11-19T09:48:18;9.57;;;3.17;;
68803;SDS011;55787;52.678;13.314;2023-11-19T09:50:46;8.65;;;2.78;;
68803;SDS011;55787;52.678;13.314;2023-11-19T09:53:13;9.05;;;2.78;;
68803;SDS011;55787;52.678;13.314;2023-11-19T09:55:41;9.30;;;3.22;;
68803;SDS011;55787;52.678;13.314;2023-11-19T09:58:08;14.43;;;5.47;;
68803;SDS011;55787;52.678;13.314;2023-11-19T10:00:38;10.25;;;3.95;;
68803;SDS011;55787;52.678;13.314;2023-11-19T10:03:07;9.68;;;3.25;;
68803;SDS011;55787;52.678;13.314;2023-11-19T10:05:37;9.45;;;2.67;;
68803;SDS011;55787;52.678;13.314;2023-11-19T10:08:05;8.15;;;2.10;;
68803;SDS011;55787;52.678;13.314;2023-11-19T10:10:32;9.23;;;2.40;;
68803;SDS011;55787;52.678;13.314;2023-11-19T10:13:00;8.73;;;2.78;;
68803;SDS011;55787;52.678;13.314;2023-11-19T10:15:27;8.57;;;2.63;;
68803;SDS011;55787;52.678;13.314;2023-11-19T10:17:56;8.32;;;2.80;;
68803;SDS011;55787;52.678;13.314;2023-11-19T10:20:24;8.60;;;3.45;;
68803;SDS011;55787;52.678;13.314;2023-11-19T10:22:54;11.20;;;3.10;;
68803;SDS011;55787;52.678;13.314;2023-11-19T10:25:22;8.38;;;2.65;;
68803;SDS011;55787;52.678;13.314;2023-11-19T10:27:53;8.07;;;2.10;;
68803;SDS011;55787;52.678;13.314;2023-11-19T10:30:24;7.45;;;1.95;;
68803;SDS011;55787;52.678;13.314;2023-11-19T10:33:11;8.23;;;2.25;;
68803;SDS011;55787;52.678;13.314;2023-11-19T10:35:53;8.93;;;2.20;;
68803;SDS011;55787;52.678;13.314;2023-11-19T10:38:25;7.22;;;1.75;;
68803;SDS011;55787;52.678;13.314;2023-11-19T10:40:53;8.73;;;2.17;;
68803;SDS011;55787;52.678;13.314;2023-11-19T10:43:23;7.30;;;1.90;;
68803;SDS011;55787;52.678;13.314;2023-11-19T10:45:50;10.10;;;2.05;;
68803;SDS011;55787;52.678;13.314;2023-11-19T10:48:17;7.85;;;1.58;;
68803;SDS011;55787;52.678;13.314;2023-11-19T10:50:45;8.65;;;2.17;;
68803;SDS011;55787;52.678;13.314;2023-11-19T10:53:15;8.50;;;1.83;;
68803;SDS011;55787;52.678;13.314;2023-11-19T10:55:46;9.48;;;2.08;;
68803;SDS011;55787;52.678;13.314;2023-11-19T10:58:15;10.00;;;2.05;;
68803;SDS011;55787;52.678;13.314;2023-11-19T11:00:47;5.90;;;1.27;;
68803;SDS011;55787;52.678;13.314;2023-11-19T11:03:18;9.63;;;1.83;;
68803;SDS011;55787;52.678;13.314;2023-11-19T11:05:46;9.93;;;2.17;;
68803;SDS011;55787;52.678;13.314;2023-11-19T11:08:14;7.97;;;1.70;;
68803;SDS011;55787;52.678;13.314;2023-11-19T11:10:52;8.40;;;1.83;;
68803;SDS011;55787;52.678;13.314;2023-11-19T11:13:24;9.90;;;2.20;;
68803;SDS011;55787;52.678;13.314;2023-11-19T11:15:51;11.95;;;2.20;;
68803;SDS011;55787;52.678;13.314;2023-11-19T11:18:20;11.73;;;2.33;;
68803;SDS011;55787;52.678;13.314;2023-11-19T11:20:46;9.07;;;2.13;;
68803;SDS011;55787;52.678;13.314;2023-11-19T11:34:00;5.65;;;1.10;;
68803;SDS011;55787;52.678;13.314;2023-11-19T11:39:47;9.47;;;1.73;;
68803;SDS011;55787;52.678;13.314;2023-11-19T11:48:22;12.00;;;1.55;;
68803;SDS011;55787;52.678;13.314;2023-11-19T11:50:23;12.77;;;2.20;;
68803;SDS011;55787;52.678;13.314;2023-11-19T11:58:03;12.63;;;2.05;;
68803;SDS011;55787;52.678;13.314;2023-11-19T12:00:32;15.02;;;2.72;;
68803;SDS011;55787;52.678;13.314;2023-11-19T12:03:04;15.13;;;3.00;;
68803;SDS011;55787;52.678;13.314;2023-11-19T12:05:31;14.20;;;2.50;;
68803;SDS011;55787;52.678;13.314;2023-11-19T12:08:00;12.38;;;2.00;;
68803;SDS011;55787;52.678;13.314;2023-11-19T12:10:29;12.18;;;2.17;;
68803;SDS011;55787;52.678;13.314;2023-11-19T12:12:59;12.35;;;2.08;;
68803;SDS011;55787;52.678;13.314;2023-11-19T12:15:27;14.93;;;2.25;;
68803;SDS011;55787;52.678;13.314;2023-11-19T12:17:54;15.57;;;2.47;;
68803;SDS011;55787;52.678;13.314;2023-11-19T12:20:22;9.50;;;1.67;;
68803;SDS011;55787;52.678;13.314;2023-11-19T12:22:53;16.33;;;2.22;;
68803;SDS011;55787;52.678;13.314;2023-11-19T12:25:20;16.95;;;2.72;;
68803;SDS011;55787;52.678;13.314;2023-11-19T12:27:47;12.32;;;2.08;;
68803;SDS011;55787;52.678;13.314;2023-11-19T12:30:24;18.47;;;2.70;;
68803;SDS011;55787;52.678;13.314;2023-11-19T12:32:53;14.38;;;2.30;;
68803;SDS011;55787;52.678;13.314;2023-11-19T12:35:21;16.58;;;2.67;;
68803;SDS011;55787;52.678;13.314;2023-11-19T12:37:49;13.55;;;2.47;;
68803;SDS011;55787;52.678;13.314;2023-11-19T12:40:18;13.63;;;1.92;;
68803;SDS011;55787;52.678;13.314;2023-11-19T12:42:55;15.30;;;2.20;;
68803;SDS011;55787;52.678;13.314;2023-11-19T12:45:22;12.65;;;2.08;;
68803;SDS011;55787;52.678;13.314;2023-11-19T12:48:08;11.68;;;2.40;;
68803;SDS011;55787;52.678;13.314;2023-11-19T12:50:54;14.52;;;2.53;;
68803;SDS011;55787;52.678;13.314;2023-11-19T12:53:24;15.68;;;2.22;;
68803;SDS011;55787;52.678;13.314;2023-11-19T12:55:52;14.10;;;2.13;;
68803;SDS011;55787;52.678;13.314;2023-11-19T12:58:32;16.15;;;2.15;;
68803;SDS011;55787;52.678;13.314;2023-11-19T13:01:04;13.30;;;1.92;;
68803;SDS011;55787;52.678;13.314;2023-11-19T13:03:36;14.48;;;2.80;;
68803;SDS011;55787;52.678;13.314;2023-11-19T13:06:05;18.88;;;2.42;;
68803;SDS011;55787;52.678;13.314;2023-11-19T13:08:39;17.90;;;2.83;;
68803;SDS011;55787;52.678;13.314;2023-11-19T13:11:15;16.42;;;2.80;;
68803;SDS011;55787;52.678;13.314;2023-11-19T13:14:00;14.20;;;2.63;;
68803;SDS011;55787;52.678;13.314;2023-11-19T13:16:32;13.38;;;2.22;;
68803;SDS011;55787;52.678;13.314;2023-11-19T13:18:59;10.57;;;2.00;;
68803;SDS011;55787;52.678;13.314;2023-11-19T13:21:29;14.30;;;2.10;;
68803;SDS011;55787;52.678;13.314;2023-11-19T13:23:56;15.65;;;2.13;;
68803;SDS011;55787;52.678;13.314;2023-11-19T13:26:23;11.38;;;1.90;;
68803;SDS011;55787;52.678;13.314;2023-11-19T13:28:50;8.27;;;1.05;;
68803;SDS011;55787;52.678;13.314;2023-11-19T13:31:16;14.40;;;2.30;;
68803;SDS011;55787;52.678;13.314;2023-11-19T13:33:43;12.77;;;2.20;;
68803;SDS011;55787;52.678;13.314;2023-11-19T13:36:10;15.55;;;2.00;;
68803;SDS011;55787;52.678;13.314;2023-11-19T13:38:41;11.38;;;2.25;;
68803;SDS011;55787;52.678;13.314;2023-11-19T13:41:08;14.20;;;2.53;;
68803;SDS011;55787;52.678;13.314;2023-11-19T13:43:36;20.15;;;2.33;;
68803;SDS011;55787;52.678;13.314;2023-11-19T13:46:03;13.43;;;2.10;;
68803;SDS011;55787;52.678;13.314;2023-11-19T13:48:30;14.93;;;2.22;;
68803;SDS011;55787;52.678;13.314;2023-11-19T13:50:56;14.38;;;2.33;;
68803;SDS011;55787;52.678;13.314;2023-11-19T13:53:23;11.85;;;1.70;;
68803;SDS011;55787;52.678;13.314;2023-11-19T13:55:50;16.10;;;2.20;;
68803;SDS011;55787;52.678;13.314;2023-11-19T13:58:16;17.40;;;2.50;;
68803;SDS011;55787;52.678;13.314;2023-11-19T14:00:43;17.48;;;2.78;;
68803;SDS011;55787;52.678;13.314;2023-11-19T14:03:10;14.27;;;2.28;;
68803;SDS011;55787;52.678;13.314;2023-11-19T14:05:37;15.95;;;1.90;;
68803;SDS011;55787;52.678;13.314;2023-11-19T14:08:04;14.57;;;1.73;;
68803;SDS011;55787;52.678;13.314;2023-11-19T14:10:50;15.67;;;1.90;;
68803;SDS011;55787;52.678;13.314;2023-11-19T14:13:18;15.50;;;1.98;;
68803;SDS011;55787;52.678;13.314;2023-11-19T14:15:44;17.35;;;2.45;;
68803;SDS011;55787;52.678;13.314;2023-11-19T14:18:15;13.05;;;2.15;;
68803;SDS011;55787;52.678;13.314;2023-11-19T14:20:42;16.52;;;2.15;;
68803;SDS011;55787;52.678;13.314;2023-11-19T14:23:09;15.07;;;2.27;;
68803;SDS011;55787;52.678;13.314;2023-11-19T14:25:35;18.38;;;3.67;;
68803;SDS011;55787;52.678;13.314;2023-11-19T14:28:02;14.45;;;2.30;;
68803;SDS011;55787;52.678;13.314;2023-11-19T14:30:31;17.33;;;2.80;;
68803;SDS011;55787;52.678;13.314;2023-11-19T14:32:58;17.15;;;2.20;;
68803;SDS011;55787;52.678;13.314;2023-11-19T14:35:25;18.20;;;2.30;;
68803;SDS011;55787;52.678;13.314;2023-11-19T14:37:52;22.13;;;2.95;;
68803;SDS011;55787;52.678;13.314;2023-11-19T14:40:19;17.50;;;2.95;;
68803;SDS011;55787;52.678;13.314;2023-11-19T14:42:46;18.58;;;2.63;;
68803;SDS011;55787;52.678;13.314;2023-11-19T14:45:12;18.27;;;3.20;;
68803;SDS011;55787;52.678;13.314;2023-11-19T14:47:39;21.30;;;2.90;;
68803;SDS011;55787;52.678;13.314;2023-11-19T14:50:06;18.38;;;2.90;;
68803;SDS011;55787;52.678;13.314;2023-11-19T14:52:34;13.30;;;2.35;;